sensor_id;sensor_type;location;lat;lon;timestamp;pressure;altitude;pressure_sealevel;temperature;humidity
30856;BME280;17570;0.000;0.000;2023-02-13T00:02:12;98802.91;;;11.58;36.66
30856;BME280;17570;0.000;0.000;2023-02-13T00:04:41;98809.25;;;11.37;37.09
30856;BME280;17570;0.000;0.000;2023-02-13T00:07:09;98807.70;;;11.66;36.92
30856;BME280;17570;0.000;0.000;2023-02-13T00:09:38;98815.50;;;11.82;36.55
30856;BME280;17570;0.000;0.000;2023-02-13T00:12:06;98807.95;;;11.77;37.13
30856;BME280;17570;0.000;0.000;2023-02-13T00:14:34;98806.44;;;11.57;36.79
30856;BME280;17570;0.000;0.000;2023-02-13T00:17:02;98810.70;;;11.42;37.16
30856;BME280;17570;0.000;0.000;2023-02-13T00:19:30;98807.03;;;11.62;36.96
30856;BME280;17570;0.000;0.000;2023-02-13T00:21:58;98813.77;;;11.82;36.63
30856;BME280;17570;0.000;0.000;2023-02-13T00:24:26;98818.05;;;11.83;37.19
30856;BME280;17570;0.000;0.000;2023-02-13T00:26:53;98810.39;;;11.80;37.56
30856;BME280;17570;0.000;0.000;2023-02-13T00:29:21;98816.41;;;11.65;36.92
30856;BME280;17570;0.000;0.000;2023-02-13T00:31:48;98817.14;;;11.35;37.31
30856;BME280;17570;0.000;0.000;2023-02-13T00:34:16;98817.00;;;11.54;37.11
30856;BME280;17570;0.000;0.000;2023-02-13T00:36:43;98823.25;;;11.83;36.87
30856;BME280;17570;0.000;0.000;2023-02-13T00:39:11;98821.58;;;11.82;37.30
30856;BME280;17570;0.000;0.000;2023-02-13T00:41:38;98826.66;;;11.68;36.88
30856;BME280;17570;0.000;0.000;2023-02-13T00:44:08;98828.23;;;11.55;37.13
30856;BME280;17570;0.000;0.000;2023-02-13T00:46:36;98832.64;;;11.37;37.59
30856;BME280;17570;0.000;0.000;2023-02-13T00:49:04;98827.00;;;11.78;37.25
30856;BME280;17570;0.000;0.000;2023-02-13T00:51:33;98826.78;;;11.82;37.24
30856;BME280;17570;0.000;0.000;2023-02-13T00:54:01;98826.16;;;11.77;36.95
30856;BME280;17570;0.000;0.000;2023-02-13T00:56:28;98818.70;;;11.71;37.07
30856;BME280;17570;0.000;0.000;2023-02-13T00:58:56;98815.52;;;11.66;37.28
30856;BME280;17570;0.000;0.000;2023-02-13T01:01:24;98818.27;;;11.63;37.14
30856;BME280;17570;0.000;0.000;2023-02-13T01:03:52;98822.34;;;11.35;37.50
30856;BME280;17570;0.000;0.000;2023-02-13T01:06:20;98814.09;;;11.27;37.81
30856;BME280;17570;0.000;0.000;2023-02-13T01:08:47;98819.25;;;11.44;37.63
30856;BME280;17570;0.000;0.000;2023-02-13T01:11:15;98818.52;;;11.74;36.98
30856;BME280;17570;0.000;0.000;2023-02-13T01:13:44;98825.42;;;11.75;37.20
30856;BME280;17570;0.000;0.000;2023-02-13T01:16:12;98820.37;;;11.72;37.69
30856;BME280;17570;0.000;0.000;2023-02-13T01:18:41;98827.89;;;11.61;37.08
30856;BME280;17570;0.000;0.000;2023-02-13T01:21:13;98827.53;;;11.35;37.63
30856;BME280;17570;0.000;0.000;2023-02-13T01:23:37;98826.90;;;11.47;37.33
30856;BME280;17570;0.000;0.000;2023-02-13T01:26:06;98821.20;;;11.72;37.11
30856;BME280;17570;0.000;0.000;2023-02-13T01:28:33;98828.52;;;11.82;37.04
30856;BME280;17570;0.000;0.000;2023-02-13T01:31:01;98824.55;;;11.59;37.25
30856;BME280;17570;0.000;0.000;2023-02-13T01:33:28;98820.09;;;11.45;37.39
30856;BME280;17570;0.000;0.000;2023-02-13T01:35:56;98815.27;;;11.70;37.20
30856;BME280;17570;0.000;0.000;2023-02-13T01:38:23;98818.20;;;11.80;36.91
30856;BME280;17570;0.000;0.000;2023-02-13T01:40:52;98817.61;;;11.75;36.89
30856;BME280;17570;0.000;0.000;2023-02-13T01:43:20;98817.19;;;11.67;37.20
30856;BME280;17570;0.000;0.000;2023-02-13T01:45:50;98809.34;;;11.35;37.26
30856;BME280;17570;0.000;0.000;2023-02-13T01:48:18;98812.66;;;11.21;37.64
30856;BME280;17570;0.000;0.000;2023-02-13T01:50:59;98817.17;;;11.18;37.55
30856;BME280;17570;0.000;0.000;2023-02-13T01:53:28;98820.67;;;11.50;37.32
30856;BME280;17570;0.000;0.000;2023-02-13T01:56:02;98818.95;;;11.66;36.89
30856;BME280;17570;0.000;0.000;2023-02-13T01:58:27;98814.63;;;11.34;37.37
30856;BME280;17570;0.000;0.000;2023-02-13T02:00:55;98809.34;;;11.35;37.31
30856;BME280;17570;0.000;0.000;2023-02-13T02:03:27;98818.17;;;11.64;36.95
30856;BME280;17570;0.000;0.000;2023-02-13T02:05:56;98815.97;;;11.41;37.08
30856;BME280;17570;0.000;0.000;2023-02-13T02:08:24;98820.81;;;11.31;37.33
30856;BME280;17570;0.000;0.000;2023-02-13T02:10:53;98821.70;;;11.47;37.07
30856;BME280;17570;0.000;0.000;2023-02-13T02:13:22;98816.41;;;11.65;36.66
30856;BME280;17570;0.000;0.000;2023-02-13T02:15:50;98815.02;;;11.26;37.28
30856;BME280;17570;0.000;0.000;2023-02-13T02:18:19;98820.45;;;11.21;37.30
30856;BME280;17570;0.000;0.000;2023-02-13T02:32:09;98825.53;;;11.40;37.40
30856;BME280;17570;0.000;0.000;2023-02-13T02:47:58;98825.69;;;11.04;37.11
30856;BME280;17570;0.000;0.000;2023-02-13T02:50:48;98815.77;;;11.28;36.88
30856;BME280;17570;0.000;0.000;2023-02-13T02:53:16;98819.71;;;11.19;36.68
30856;BME280;17570;0.000;0.000;2023-02-13T02:55:49;98814.39;;;11.05;36.87
30856;BME280;17570;0.000;0.000;2023-02-13T02:58:27;98809.02;;;11.08;36.67
30856;BME280;17570;0.000;0.000;2023-02-13T03:01:10;98814.54;;;11.02;36.79
30856;BME280;17570;0.000;0.000;2023-02-13T03:03:55;98819.84;;;10.83;37.07
30856;BME280;17570;0.000;0.000;2023-02-13T03:06:58;98812.87;;;11.01;37.13
30856;BME280;17570;0.000;0.000;2023-02-13T03:09:27;98816.12;;;11.05;36.49
30856;BME280;17570;0.000;0.000;2023-02-13T03:12:13;98826.70;;;10.84;36.85
30856;BME280;17570;0.000;0.000;2023-02-13T03:14:59;98820.44;;;10.88;36.77
30856;BME280;17570;0.000;0.000;2023-02-13T03:17:26;98815.71;;;10.79;36.63
30856;BME280;17570;0.000;0.000;2023-02-13T03:23:14;98821.05;;;10.76;36.59
30856;BME280;17570;0.000;0.000;2023-02-13T03:25:54;98808.61;;;10.83;36.52
30856;BME280;17570;0.000;0.000;2023-02-13T03:31:27;98796.83;;;10.93;36.39
30856;BME280;17570;0.000;0.000;2023-02-13T03:33:55;98806.48;;;10.73;36.82
30856;BME280;17570;0.000;0.000;2023-02-13T03:36:25;98796.23;;;10.88;36.50
30856;BME280;17570;0.000;0.000;2023-02-13T03:39:12;98799.66;;;10.88;36.55
30856;BME280;17570;0.000;0.000;2023-02-13T03:44:30;98805.73;;;11.05;35.99
30856;BME280;17570;0.000;0.000;2023-02-13T03:46:57;98800.41;;;10.90;36.28
30856;BME280;17570;0.000;0.000;2023-02-13T03:49:35;98805.82;;;11.03;35.87
30856;BME280;17570;0.000;0.000;2023-02-13T03:52:29;98802.23;;;11.06;35.80
30856;BME280;17570;0.000;0.000;2023-02-13T03:55:04;98802.71;;;10.96;35.79
30856;BME280;17570;0.000;0.000;2023-02-13T03:57:50;98796.44;;;11.01;35.75
30856;BME280;17570;0.000;0.000;2023-02-13T04:00:43;98797.58;;;10.95;35.72
30856;BME280;17570;0.000;0.000;2023-02-13T04:05:56;98794.83;;;10.98;35.26
30856;BME280;17570;0.000;0.000;2023-02-13T04:08:23;98795.30;;;10.89;35.54
30856;BME280;17570;0.000;0.000;2023-02-13T04:10:52;98799.19;;;10.97;35.31
30856;BME280;17570;0.000;0.000;2023-02-13T04:13:22;98801.31;;;11.07;34.94
30856;BME280;17570;0.000;0.000;2023-02-13T04:16:00;98802.59;;;11.15;35.00
30856;BME280;17570;0.000;0.000;2023-02-13T04:18:29;98808.78;;;11.13;34.80
30856;BME280;17570;0.000;0.000;2023-02-13T04:20:53;98806.98;;;10.97;34.91
30856;BME280;17570;0.000;0.000;2023-02-13T04:23:20;98804.77;;;10.90;34.86
30856;BME280;17570;0.000;0.000;2023-02-13T04:25:49;98806.14;;;10.97;35.02
30856;BME280;17570;0.000;0.000;2023-02-13T04:28:17;98807.11;;;11.12;34.84
30856;BME280;17570;0.000;0.000;2023-02-13T04:30:44;98809.86;;;11.09;34.55
30856;BME280;17570;0.000;0.000;2023-02-13T04:33:12;98812.33;;;10.94;34.72
30856;BME280;17570;0.000;0.000;2023-02-13T04:35:39;98820.72;;;10.99;34.55
30856;BME280;17570;0.000;0.000;2023-02-13T04:38:07;98820.06;;;10.96;34.57
30856;BME280;17570;0.000;0.000;2023-02-13T04:40:34;98823.69;;;11.09;34.33
30856;BME280;17570;0.000;0.000;2023-02-13T04:43:02;98824.56;;;10.92;34.37
30856;BME280;17570;0.000;0.000;2023-02-13T04:45:29;98824.09;;;11.02;34.41
30856;BME280;17570;0.000;0.000;2023-02-13T04:47:57;98814.09;;;10.94;34.40
30856;BME280;17570;0.000;0.000;2023-02-13T04:50:24;98812.33;;;10.94;34.29
30856;BME280;17570;0.000;0.000;2023-02-13T04:52:53;98817.97;;;11.03;34.24
30856;BME280;17570;0.000;0.000;2023-02-13T04:55:21;98820.66;;;11.01;34.14
30856;BME280;17570;0.000;0.000;2023-02-13T04:57:54;98824.48;;;10.94;34.15
30856;BME280;17570;0.000;0.000;2023-02-13T05:00:19;98822.27;;;10.86;34.03
30856;BME280;17570;0.000;0.000;2023-02-13T05:02:47;98833.89;;;10.79;34.21
30856;BME280;17570;0.000;0.000;2023-02-13T05:05:14;98829.53;;;10.80;34.18
30856;BME280;17570;0.000;0.000;2023-02-13T05:07:42;98836.95;;;10.87;34.63
30856;BME280;17570;0.000;0.000;2023-02-13T05:10:10;98844.57;;;10.90;34.81
30856;BME280;17570;0.000;0.000;2023-02-13T05:12:37;98847.03;;;10.93;35.06
30856;BME280;17570;0.000;0.000;2023-02-13T05:15:05;98845.13;;;10.97;34.94
30856;BME280;17570;0.000;0.000;2023-02-13T05:17:33;98848.00;;;10.91;34.78
30856;BME280;17570;0.000;0.000;2023-02-13T05:20:00;98846.56;;;10.85;34.67
30856;BME280;17570;0.000;0.000;2023-02-13T05:22:30;98848.23;;;10.86;34.63
30856;BME280;17570;0.000;0.000;2023-02-13T05:25:16;98854.22;;;10.88;34.78
30856;BME280;17570;0.000;0.000;2023-02-13T05:27:43;98849.63;;;10.76;34.69
30856;BME280;17570;0.000;0.000;2023-02-13T05:30:11;98852.16;;;10.78;34.68
30856;BME280;17570;0.000;0.000;2023-02-13T05:32:39;98853.44;;;10.86;34.34
30856;BME280;17570;0.000;0.000;2023-02-13T05:35:08;98856.11;;;10.67;34.65
30856;BME280;17570;0.000;0.000;2023-02-13T05:37:36;98854.91;;;10.75;34.61
30856;BME280;17570;0.000;0.000;2023-02-13T05:40:03;98858.70;;;10.67;34.65
30856;BME280;17570;0.000;0.000;2023-02-13T05:42:32;98862.23;;;10.66;34.59
30856;BME280;17570;0.000;0.000;2023-02-13T05:44:59;98860.84;;;10.77;34.48
30856;BME280;17570;0.000;0.000;2023-02-13T05:47:27;98865.75;;;10.65;34.72
30856;BME280;17570;0.000;0.000;2023-02-13T05:49:54;98869.96;;;10.68;34.66
30856;BME280;17570;0.000;0.000;2023-02-13T05:52:22;98865.29;;;10.75;34.91
30856;BME280;17570;0.000;0.000;2023-02-13T05:54:49;98867.43;;;10.84;34.60
30856;BME280;17570;0.000;0.000;2023-02-13T05:57:17;98866.73;;;10.80;34.87
30856;BME280;17570;0.000;0.000;2023-02-13T05:59:45;98869.65;;;10.74;34.85
30856;BME280;17570;0.000;0.000;2023-02-13T06:02:12;98870.03;;;10.84;34.82
30856;BME280;17570;0.000;0.000;2023-02-13T06:04:42;98871.39;;;10.91;34.82
30856;BME280;17570;0.000;0.000;2023-02-13T06:07:09;98877.36;;;10.93;34.69
30856;BME280;17570;0.000;0.000;2023-02-13T06:09:37;98880.19;;;10.88;34.81
30856;BME280;17570;0.000;0.000;2023-02-13T06:12:04;98883.48;;;10.92;34.79
30856;BME280;17570;0.000;0.000;2023-02-13T06:14:32;98878.95;;;10.95;34.99
30856;BME280;17570;0.000;0.000;2023-02-13T06:16:59;98878.72;;;11.00;34.77
30856;BME280;17570;0.000;0.000;2023-02-13T06:19:27;98882.47;;;11.12;34.89
30856;BME280;17570;0.000;0.000;2023-02-13T06:21:54;98883.86;;;11.02;34.73
30856;BME280;17570;0.000;0.000;2023-02-13T06:24:22;98880.25;;;11.04;34.78
30856;BME280;17570;0.000;0.000;2023-02-13T06:26:49;98876.90;;;11.02;34.89
30856;BME280;17570;0.000;0.000;2023-02-13T06:29:17;98885.77;;;11.15;34.87
30856;BME280;17570;0.000;0.000;2023-02-13T06:31:45;98882.19;;;11.01;35.34
30856;BME280;17570;0.000;0.000;2023-02-13T06:34:12;98885.22;;;11.09;35.23
30856;BME280;17570;0.000;0.000;2023-02-13T06:36:39;98890.64;;;11.21;35.10
30856;BME280;17570;0.000;0.000;2023-02-13T06:39:08;98896.44;;;11.27;35.18
30856;BME280;17570;0.000;0.000;2023-02-13T06:41:36;98893.69;;;11.30;35.26
30856;BME280;17570;0.000;0.000;2023-02-13T06:44:04;98902.65;;;11.24;35.52
30856;BME280;17570;0.000;0.000;2023-02-13T06:46:32;98904.84;;;11.32;35.41
30856;BME280;17570;0.000;0.000;2023-02-13T06:48:59;98900.69;;;11.45;35.25
30856;BME280;17570;0.000;0.000;2023-02-13T06:51:27;98897.02;;;11.49;35.38
30856;BME280;17570;0.000;0.000;2023-02-13T06:53:54;98895.36;;;11.64;35.28
30856;BME280;17570;0.000;0.000;2023-02-13T06:56:22;98898.17;;;11.77;36.06
30856;BME280;17570;0.000;0.000;2023-02-13T06:58:51;98889.83;;;11.70;35.83
30856;BME280;17570;0.000;0.000;2023-02-13T07:01:18;98899.83;;;11.62;35.38
30856;BME280;17570;0.000;0.000;2023-02-13T07:03:46;98899.88;;;11.60;35.15
30856;BME280;17570;0.000;0.000;2023-02-13T07:06:20;98897.09;;;11.81;36.21
30856;BME280;17570;0.000;0.000;2023-02-13T07:08:47;98894.73;;;11.76;35.63
30856;BME280;17570;0.000;0.000;2023-02-13T07:11:20;98897.38;;;11.59;35.53
30856;BME280;17570;0.000;0.000;2023-02-13T07:13:48;98890.89;;;11.83;35.56
30856;BME280;17570;0.000;0.000;2023-02-13T07:16:16;98887.45;;;11.83;36.60
30856;BME280;17570;0.000;0.000;2023-02-13T07:18:43;98893.89;;;11.75;36.06
30856;BME280;17570;0.000;0.000;2023-02-13T07:21:11;98891.29;;;11.75;36.39
30856;BME280;17570;0.000;0.000;2023-02-13T07:23:38;98895.38;;;11.80;35.45
30856;BME280;17570;0.000;0.000;2023-02-13T07:26:06;98884.61;;;11.87;35.65
30856;BME280;17570;0.000;0.000;2023-02-13T07:28:33;98880.83;;;11.93;35.55
30856;BME280;17570;0.000;0.000;2023-02-13T07:31:04;98892.16;;;11.92;36.08
30856;BME280;17570;0.000;0.000;2023-02-13T07:33:32;98888.05;;;11.88;36.03
30856;BME280;17570;0.000;0.000;2023-02-13T07:36:00;98886.62;;;11.82;36.49
30856;BME280;17570;0.000;0.000;2023-02-13T07:38:30;98890.89;;;11.83;36.21
30856;BME280;17570;0.000;0.000;2023-02-13T07:40:58;98892.56;;;11.84;36.14
30856;BME280;17570;0.000;0.000;2023-02-13T07:43:26;98885.53;;;11.86;36.25
30856;BME280;17570;0.000;0.000;2023-02-13T07:45:53;98869.92;;;11.86;36.59
30856;BME280;17570;0.000;0.000;2023-02-13T07:48:22;98877.48;;;11.91;35.88
30856;BME280;17570;0.000;0.000;2023-02-13T07:50:50;98878.81;;;11.98;35.53
30856;BME280;17570;0.000;0.000;2023-02-13T07:53:17;98877.82;;;12.00;35.64
30856;BME280;17570;0.000;0.000;2023-02-13T07:55:46;98877.47;;;12.07;34.86
30856;BME280;17570;0.000;0.000;2023-02-13T07:58:16;98867.90;;;12.07;34.48
30856;BME280;17570;0.000;0.000;2023-02-13T08:00:43;98871.95;;;12.13;34.44
30856;BME280;17570;0.000;0.000;2023-02-13T08:03:10;98861.93;;;12.21;34.37
30856;BME280;17570;0.000;0.000;2023-02-13T08:05:38;98859.75;;;12.29;34.30
30856;BME280;17570;0.000;0.000;2023-02-13T08:08:06;98868.07;;;12.36;33.83
30856;BME280;17570;0.000;0.000;2023-02-13T08:10:33;98859.91;;;12.42;33.96
30856;BME280;17570;0.000;0.000;2023-02-13T08:13:19;98857.11;;;12.45;34.10
30856;BME280;17570;0.000;0.000;2023-02-13T08:15:46;98858.88;;;12.44;33.85
30856;BME280;17570;0.000;0.000;2023-02-13T08:18:14;98852.31;;;12.53;33.99
30856;BME280;17570;0.000;0.000;2023-02-13T08:20:41;98851.88;;;12.61;33.77
30856;BME280;17570;0.000;0.000;2023-02-13T08:23:09;98852.45;;;12.66;33.32
30856;BME280;17570;0.000;0.000;2023-02-13T08:25:37;98853.86;;;12.71;33.57
30856;BME280;17570;0.000;0.000;2023-02-13T08:28:05;98856.77;;;12.81;33.20
30856;BME280;17570;0.000;0.000;2023-02-13T08:30:32;98852.13;;;12.86;32.63
30856;BME280;17570;0.000;0.000;2023-02-13T08:33:00;98850.19;;;12.90;32.62
30856;BME280;17570;0.000;0.000;2023-02-13T08:35:27;98848.24;;;12.93;32.80
30856;BME280;17570;0.000;0.000;2023-02-13T08:38:00;98848.70;;;13.00;32.54
30856;BME280;17570;0.000;0.000;2023-02-13T08:40:25;98842.66;;;12.99;32.77
30856;BME280;17570;0.000;0.000;2023-02-13T08:42:58;98846.66;;;13.05;32.60
30856;BME280;17570;0.000;0.000;2023-02-13T08:45:22;98843.44;;;13.16;32.97
30856;BME280;17570;0.000;0.000;2023-02-13T08:47:49;98837.95;;;13.20;32.73
30856;BME280;17570;0.000;0.000;2023-02-13T08:50:17;98829.67;;;13.28;32.48
30856;BME280;17570;0.000;0.000;2023-02-13T08:52:44;98830.23;;;13.33;32.19
30856;BME280;17570;0.000;0.000;2023-02-13T08:55:12;98827.17;;;13.41;32.14
30856;BME280;17570;0.000;0.000;2023-02-13T08:57:39;98829.22;;;13.50;32.00
30856;BME280;17570;0.000;0.000;2023-02-13T09:00:07;98827.92;;;13.57;31.31
30856;BME280;17570;0.000;0.000;2023-02-13T09:02:34;98826.70;;;13.63;31.87
30856;BME280;17570;0.000;0.000;2023-02-13T09:05:02;98825.30;;;13.71;31.89
30856;BME280;17570;0.000;0.000;2023-02-13T09:07:29;98815.30;;;13.78;31.48
30856;BME280;17570;0.000;0.000;2023-02-13T09:09:58;98820.45;;;13.51;29.90
30856;BME280;17570;0.000;0.000;2023-02-13T09:12:26;98830.86;;;11.21;32.81
30856;BME280;17570;0.000;0.000;2023-02-13T09:14:53;98819.75;;;12.46;32.19
30856;BME280;17570;0.000;0.000;2023-02-13T09:17:21;98811.63;;;13.25;31.97
30856;BME280;17570;0.000;0.000;2023-02-13T09:19:49;98822.83;;;13.83;34.62
30856;BME280;17570;0.000;0.000;2023-02-13T09:22:17;98817.34;;;14.14;35.22
30856;BME280;17570;0.000;0.000;2023-02-13T09:24:44;98815.41;;;14.30;35.03
30856;BME280;17570;0.000;0.000;2023-02-13T09:27:11;98813.97;;;14.39;33.88
30856;BME280;17570;0.000;0.000;2023-02-13T09:29:39;98809.84;;;14.49;32.81
30856;BME280;17570;0.000;0.000;2023-02-13T09:32:06;98806.20;;;14.52;33.61
30856;BME280;17570;0.000;0.000;2023-02-13T09:34:34;98812.91;;;14.56;32.67
30856;BME280;17570;0.000;0.000;2023-02-13T09:37:01;98805.48;;;14.63;32.16
30856;BME280;17570;0.000;0.000;2023-02-13T09:39:29;98801.54;;;14.70;32.17
30856;BME280;17570;0.000;0.000;2023-02-13T09:41:56;98795.17;;;14.99;33.69
30856;BME280;17570;0.000;0.000;2023-02-13T09:44:28;98790.34;;;15.19;32.98
30856;BME280;17570;0.000;0.000;2023-02-13T09:47:06;98782.61;;;15.30;33.15
30856;BME280;17570;0.000;0.000;2023-02-13T09:49:35;98780.71;;;15.32;33.16
30856;BME280;17570;0.000;0.000;2023-02-13T09:52:03;98774.83;;;15.41;32.07
30856;BME280;17570;0.000;0.000;2023-02-13T09:54:31;98772.52;;;15.49;32.00
30856;BME280;17570;0.000;0.000;2023-02-13T09:57:02;98768.52;;;15.56;30.75
30856;BME280;17570;0.000;0.000;2023-02-13T10:02:19;98754.47;;;15.70;29.98
30856;BME280;17570;0.000;0.000;2023-02-13T10:07:32;98751.81;;;15.83;29.91
30856;BME280;17570;0.000;0.000;2023-02-13T10:10:01;98745.87;;;15.81;29.64
30856;BME280;17570;0.000;0.000;2023-02-13T10:15:21;98741.73;;;16.14;28.04
30856;BME280;17570;0.000;0.000;2023-02-13T10:17:56;98730.67;;;16.21;29.04
30856;BME280;17570;0.000;0.000;2023-02-13T10:20:55;98737.38;;;16.37;29.38
30856;BME280;17570;0.000;0.000;2023-02-13T10:23:07;98726.59;;;16.52;30.17
30856;BME280;17570;0.000;0.000;2023-02-13T10:25:29;98725.30;;;16.69;30.33
30856;BME280;17570;0.000;0.000;2023-02-13T10:27:59;98725.71;;;16.87;30.88
30856;BME280;17570;0.000;0.000;2023-02-13T10:30:38;98722.14;;;17.11;31.05
30856;BME280;17570;0.000;0.000;2023-02-13T10:38:37;98705.37;;;17.68;29.64
30856;BME280;17570;0.000;0.000;2023-02-13T10:46:20;98688.95;;;18.60;29.43
30856;BME280;17570;0.000;0.000;2023-02-13T10:51:18;98691.19;;;19.26;30.36
30856;BME280;17570;0.000;0.000;2023-02-13T11:04:15;98672.41;;;20.28;29.24
30856;BME280;17570;0.000;0.000;2023-02-13T11:06:50;98670.19;;;20.52;27.41
30856;BME280;17570;0.000;0.000;2023-02-13T11:09:11;98666.75;;;20.79;27.37
30856;BME280;17570;0.000;0.000;2023-02-13T11:11:40;98663.62;;;21.03;26.87
30856;BME280;17570;0.000;0.000;2023-02-13T11:14:10;98661.55;;;21.25;27.11
30856;BME280;17570;0.000;0.000;2023-02-13T11:16:39;98662.98;;;21.47;27.01
30856;BME280;17570;0.000;0.000;2023-02-13T11:19:13;98658.09;;;21.70;28.14
30856;BME280;17570;0.000;0.000;2023-02-13T11:21:37;98655.95;;;21.91;26.47
30856;BME280;17570;0.000;0.000;2023-02-13T11:24:07;98655.11;;;22.08;25.67
30856;BME280;17570;0.000;0.000;2023-02-13T11:26:35;98651.95;;;22.23;26.71
30856;BME280;17570;0.000;0.000;2023-02-13T11:29:14;98644.80;;;22.41;26.72
30856;BME280;17570;0.000;0.000;2023-02-13T11:31:36;98647.39;;;22.59;25.72
30856;BME280;17570;0.000;0.000;2023-02-13T11:34:28;98643.42;;;22.89;26.03
30856;BME280;17570;0.000;0.000;2023-02-13T11:36:53;98635.77;;;23.20;26.33
30856;BME280;17570;0.000;0.000;2023-02-13T11:39:21;98632.50;;;23.34;27.00
30856;BME280;17570;0.000;0.000;2023-02-13T11:41:49;98632.54;;;23.59;25.96
30856;BME280;17570;0.000;0.000;2023-02-13T11:44:18;98628.14;;;23.84;26.11
30856;BME280;17570;0.000;0.000;2023-02-13T11:46:46;98626.12;;;24.10;26.01
30856;BME280;17570;0.000;0.000;2023-02-13T11:49:16;98626.11;;;24.35;25.53
30856;BME280;17570;0.000;0.000;2023-02-13T11:51:48;98625.08;;;24.60;25.57
30856;BME280;17570;0.000;0.000;2023-02-13T11:54:20;98617.02;;;24.85;24.98
30856;BME280;17570;0.000;0.000;2023-02-13T11:56:48;98620.94;;;25.05;24.97
30856;BME280;17570;0.000;0.000;2023-02-13T11:59:16;98610.54;;;25.27;24.81
30856;BME280;17570;0.000;0.000;2023-02-13T12:01:43;98610.41;;;25.51;24.62
30856;BME280;17570;0.000;0.000;2023-02-13T12:04:14;98610.25;;;25.76;24.30
30856;BME280;17570;0.000;0.000;2023-02-13T12:07:09;98603.90;;;26.00;24.36
30856;BME280;17570;0.000;0.000;2023-02-13T12:09:11;98601.12;;;26.31;24.87
30856;BME280;17570;0.000;0.000;2023-02-13T12:11:46;98599.23;;;26.54;24.95
30856;BME280;17570;0.000;0.000;2023-02-13T12:14:18;98600.52;;;26.73;24.22
30856;BME280;17570;0.000;0.000;2023-02-13T12:19:27;98597.34;;;26.99;23.15
30856;BME280;17570;0.000;0.000;2023-02-13T12:24:35;98590.72;;;26.95;21.37
30856;BME280;17570;0.000;0.000;2023-02-13T12:32:39;98588.72;;;26.97;20.99
30856;BME280;17570;0.000;0.000;2023-02-13T12:35:13;98584.57;;;26.94;19.52
30856;BME280;17570;0.000;0.000;2023-02-13T12:53:54;98571.20;;;26.43;19.91
30856;BME280;17570;0.000;0.000;2023-02-13T12:56:37;98571.55;;;26.40;20.34
30856;BME280;17570;0.000;0.000;2023-02-13T12:59:03;98564.75;;;26.38;19.44
30856;BME280;17570;0.000;0.000;2023-02-13T13:04:19;98562.30;;;26.51;18.85
30856;BME280;17570;0.000;0.000;2023-02-13T13:09:24;98564.22;;;26.57;19.20
30856;BME280;17570;0.000;0.000;2023-02-13T13:12:07;98566.98;;;26.64;18.46
30856;BME280;17570;0.000;0.000;2023-02-13T13:14:42;98561.73;;;26.70;18.10
30856;BME280;17570;0.000;0.000;2023-02-13T13:19:48;98565.39;;;26.84;18.96
30856;BME280;17570;0.000;0.000;2023-02-13T13:22:18;98552.79;;;26.93;19.17
30856;BME280;17570;0.000;0.000;2023-02-13T13:27:18;98562.31;;;27.17;19.81
30856;BME280;17570;0.000;0.000;2023-02-13T13:29:48;98561.63;;;27.30;19.63
30856;BME280;17570;0.000;0.000;2023-02-13T13:32:20;98559.67;;;27.38;19.67
30856;BME280;17570;0.000;0.000;2023-02-13T13:34:44;98555.16;;;27.39;19.30
30856;BME280;17570;0.000;0.000;2023-02-13T13:42:37;98555.05;;;27.47;19.36
30856;BME280;17570;0.000;0.000;2023-02-13T13:47:39;98546.19;;;27.46;18.57
30856;BME280;17570;0.000;0.000;2023-02-13T13:50:04;98545.36;;;27.46;17.97
30856;BME280;17570;0.000;0.000;2023-02-13T13:52:34;98552.87;;;27.57;17.71
30856;BME280;17570;0.000;0.000;2023-02-13T13:55:04;98545.16;;;27.69;17.81
30856;BME280;17570;0.000;0.000;2023-02-13T14:00:21;98536.58;;;27.95;18.49
30856;BME280;17570;0.000;0.000;2023-02-13T14:02:37;98539.28;;;28.02;18.83
30856;BME280;17570;0.000;0.000;2023-02-13T14:07:40;98535.94;;;27.93;18.17
30856;BME280;17570;0.000;0.000;2023-02-13T14:20:49;98524.45;;;26.41;14.81
30856;BME280;17570;0.000;0.000;2023-02-13T14:25:42;98520.51;;;25.69;15.03
30856;BME280;17570;0.000;0.000;2023-02-13T14:28:22;98520.94;;;25.35;15.54
30856;BME280;17570;0.000;0.000;2023-02-13T14:30:45;98515.81;;;25.03;15.15
30856;BME280;17570;0.000;0.000;2023-02-13T14:33:23;98510.88;;;24.68;16.21
30856;BME280;17570;0.000;0.000;2023-02-13T14:38:28;98507.59;;;24.03;17.71
30856;BME280;17570;0.000;0.000;2023-02-13T14:40:56;98505.33;;;23.67;18.21
30856;BME280;17570;0.000;0.000;2023-02-13T14:43:37;98505.63;;;23.31;18.95
30856;BME280;17570;0.000;0.000;2023-02-13T14:48:41;98497.18;;;22.61;20.45
30856;BME280;17570;0.000;0.000;2023-02-13T14:53:50;98505.66;;;22.04;21.67
30856;BME280;17570;0.000;0.000;2023-02-13T14:56:14;98512.39;;;21.73;22.22
30856;BME280;17570;0.000;0.000;2023-02-13T14:58:51;98510.41;;;21.49;23.28
30856;BME280;17570;0.000;0.000;2023-02-13T15:01:27;98516.81;;;21.28;23.33
30856;BME280;17570;0.000;0.000;2023-02-13T15:04:01;98507.97;;;21.02;23.86
30856;BME280;17570;0.000;0.000;2023-02-13T15:06:38;98505.53;;;20.73;24.46
30856;BME280;17570;0.000;0.000;2023-02-13T15:09:14;98502.72;;;20.56;24.58
30856;BME280;17570;0.000;0.000;2023-02-13T15:11:39;98502.69;;;20.29;25.17
30856;BME280;17570;0.000;0.000;2023-02-13T15:14:20;98499.97;;;20.11;25.51
30856;BME280;17570;0.000;0.000;2023-02-13T15:16:44;98500.16;;;19.90;25.09
30856;BME280;17570;0.000;0.000;2023-02-13T15:19:13;98496.91;;;19.69;25.62
30856;BME280;17570;0.000;0.000;2023-02-13T15:22:03;98499.95;;;19.45;25.57
30856;BME280;17570;0.000;0.000;2023-02-13T15:24:13;98498.02;;;19.27;25.80
30856;BME280;17570;0.000;0.000;2023-02-13T15:26:42;98504.80;;;19.10;26.19
30856;BME280;17570;0.000;0.000;2023-02-13T15:29:15;98502.16;;;18.91;26.21
30856;BME280;17570;0.000;0.000;2023-02-13T15:31:43;98500.70;;;18.68;26.61
30856;BME280;17570;0.000;0.000;2023-02-13T15:34:18;98509.36;;;18.49;26.93
30856;BME280;17570;0.000;0.000;2023-02-13T15:36:45;98504.05;;;18.29;27.13
30856;BME280;17570;0.000;0.000;2023-02-13T15:39:19;98507.68;;;18.07;27.69
30856;BME280;17570;0.000;0.000;2023-02-13T15:41:52;98503.30;;;17.87;27.86
30856;BME280;17570;0.000;0.000;2023-02-13T15:46:58;98506.11;;;17.53;28.46